createdAt,value
2024-01-14T21:34:27.809Z,52.38
2024-01-14T21:36:54.801Z,48.50
2024-01-14T21:39:22.087Z,65.93
2024-01-14T21:41:51.262Z,60.00
2024-01-14T21:44:18.170Z,65.32
2024-01-14T21:46:45.220Z,69.93
2024-01-14T21:49:12.667Z,66.38
2024-01-14T21:51:41.549Z,61.20
2024-01-14T21:54:08.755Z,70.18
2024-01-14T21:56:35.786Z,59.53
2024-01-14T21:59:02.851Z,78.32
2024-01-14T22:01:30.025Z,81.85
2024-01-14T22:03:57.337Z,70.15
2024-01-14T22:06:24.356Z,68.50
2024-01-14T22:08:51.345Z,104.22
2024-01-14T22:11:18.292Z,78.93
2024-01-14T22:13:45.255Z,71.30
2024-01-14T22:16:13.010Z,78.53
2024-01-14T22:18:40.199Z,65.63
2024-01-14T22:21:07.744Z,64.78
2024-01-14T22:23:34.877Z,61.47
2024-01-14T22:26:01.784Z,60.17
2024-01-14T22:28:28.838Z,56.28
2024-01-14T22:30:56.224Z,52.60
2024-01-14T22:33:23.358Z,55.50
2024-01-14T22:35:55.113Z,57.42
2024-01-14T22:38:22.257Z,49.83
2024-01-14T22:40:49.234Z,51.22
2024-01-14T22:43:16.295Z,51.10
2024-01-14T22:45:43.486Z,50.58
2024-01-14T22:48:10.654Z,50.08
2024-01-14T22:50:37.696Z,53.42
2024-01-14T22:53:04.846Z,45.97
2024-01-14T22:55:31.824Z,54.53
2024-01-14T22:57:58.830Z,47.40
2024-01-14T23:00:29.471Z,48.42
2024-01-14T23:02:56.716Z,44.15
2024-01-14T23:05:23.772Z,42.53
2024-01-14T23:07:50.933Z,40.83
2024-01-14T23:10:17.917Z,49.97
2024-01-14T23:12:44.871Z,52.50
2024-01-14T23:15:12.016Z,58.60
2024-01-14T23:17:39.175Z,62.25
2024-01-14T23:20:06.947Z,66.03
2024-01-14T23:22:33.896Z,64.10
2024-01-14T23:25:00.796Z,66.43
2024-01-14T23:27:27.812Z,59.83
2024-01-14T23:29:54.862Z,74.45
2024-01-14T23:32:21.895Z,74.28
2024-01-14T23:34:49.216Z,81.50
2024-01-14T23:37:16.567Z,75.25
2024-01-14T23:39:43.618Z,75.55
2024-01-14T23:42:10.725Z,59.83
2024-01-14T23:44:40.829Z,51.65
2024-01-14T23:47:07.812Z,47.20
2024-01-14T23:49:35.033Z,46.83
2024-01-14T23:52:02.159Z,49.70
2024-01-14T23:54:29.159Z,50.60
2024-01-14T23:56:56.110Z,53.63
2024-01-14T23:59:23.087Z,51.55
